createdAt,value
2019-04-03T00:00:38.308Z,10.37
2019-04-03T00:03:11.388Z,10.41
2019-04-03T00:05:44.872Z,10.45
2019-04-03T00:08:18.374Z,10.53
2019-04-03T00:10:50.223Z,10.45
2019-04-03T00:13:23.137Z,10.36
2019-04-03T00:15:57.485Z,10.42
2019-04-03T00:18:30.802Z,10.31
2019-04-03T00:21:03.462Z,10.31
2019-04-03T00:23:37.217Z,10.30
2019-04-03T00:26:11.185Z,10.17
2019-04-03T00:28:44.781Z,10.09
2019-04-03T00:31:18.754Z,10.05
2019-04-03T00:33:53.438Z,9.96
2019-04-03T00:36:26.966Z,9.89
2019-04-03T00:38:59.921Z,9.91
2019-04-03T00:41:33.599Z,9.84
2019-04-03T00:44:06.597Z,9.82
2019-04-03T00:46:40.015Z,9.70
2019-04-03T00:49:13.457Z,9.58
2019-04-03T00:51:44.927Z,9.48
2019-04-03T00:54:17.647Z,9.37
2019-04-03T00:56:50.159Z,9.32
2019-04-03T00:59:23.309Z,9.27
2019-04-03T01:01:56.572Z,9.26
2019-04-03T01:04:29.901Z,9.42
2019-04-03T01:07:02.384Z,9.28
2019-04-03T01:09:35.618Z,9.17
2019-04-03T01:12:07.934Z,9.03
2019-04-03T01:14:41.028Z,8.94
2019-04-03T01:17:14.619Z,8.90
2019-04-03T01:19:47.664Z,8.83
2019-04-03T01:22:21.073Z,8.82
2019-04-03T01:24:54.307Z,8.79
2019-04-03T01:27:28.369Z,8.71
2019-04-03T01:30:01.722Z,8.71
2019-04-03T01:32:33.149Z,8.72
2019-04-03T01:35:06.004Z,8.64
2019-04-03T01:37:37.770Z,8.63
2019-04-03T01:40:10.639Z,8.57
2019-04-03T01:42:42.042Z,8.53
2019-04-03T01:45:14.968Z,8.47
2019-04-03T01:47:47.004Z,8.42
2019-04-03T01:50:19.976Z,8.37
2019-04-03T01:52:53.019Z,8.33
2019-04-03T01:55:26.431Z,8.29
2019-04-03T01:58:00.586Z,8.34
2019-04-03T02:00:37.244Z,8.35
2019-04-03T02:03:10.932Z,8.28
2019-04-03T02:05:45.211Z,8.21
2019-04-03T02:08:18.601Z,8.07
2019-04-03T02:10:51.034Z,8.14
2019-04-03T02:13:23.753Z,8.14
2019-04-03T02:15:56.542Z,8.24
2019-04-03T02:18:29.708Z,8.14
2019-04-03T02:21:03.012Z,8.08
2019-04-03T02:23:36.884Z,8.04
2019-04-03T02:26:10.881Z,8.01
2019-04-03T02:28:44.967Z,8.07
2019-04-03T02:31:20.029Z,8.08
2019-04-03T02:33:54.279Z,8.16
2019-04-03T02:36:27.359Z,8.12
2019-04-03T02:39:00.654Z,8.06
2019-04-03T02:41:36.453Z,8.01
2019-04-03T02:44:09.571Z,8.04
2019-04-03T02:46:42.873Z,7.98
2019-04-03T02:49:16.462Z,7.96
2019-04-03T02:51:51.873Z,8.01
2019-04-03T02:54:34.784Z,8.06
2019-04-03T02:57:06.191Z,8.07
2019-04-03T02:59:39.932Z,8.08
2019-04-03T03:02:13.720Z,8.06
2019-04-03T03:04:47.200Z,8.18
2019-04-03T03:07:19.105Z,8.23
2019-04-03T03:09:52.817Z,8.09
2019-04-03T03:12:27.633Z,8.08
2019-04-03T03:15:02.696Z,8.06
2019-04-03T03:17:37.114Z,7.97
2019-04-03T03:20:11.176Z,8.06
2019-04-03T03:22:49.645Z,8.00
2019-04-03T03:25:21.996Z,8.08
2019-04-03T03:27:58.494Z,8.01
2019-04-03T03:30:44.377Z,8.08
2019-04-03T03:33:28.289Z,8.00
2019-04-03T03:35:46.844Z,8.01
2019-04-03T03:38:19.576Z,7.93
2019-04-03T03:40:54.065Z,7.93
2019-04-03T03:43:28.808Z,7.96
2019-04-03T03:46:04.292Z,7.95
2019-04-03T03:48:42.067Z,7.88
2019-04-03T03:51:14.922Z,7.96
2019-04-03T03:53:51.346Z,7.94
2019-04-03T03:56:25.291Z,7.93
2019-04-03T03:59:00.117Z,7.99
2019-04-03T04:01:34.338Z,7.90
2019-04-03T04:04:07.864Z,7.91
2019-04-03T04:06:39.470Z,7.89
2019-04-03T04:09:16.010Z,7.88
2019-04-03T04:11:49.743Z,7.93
2019-04-03T04:14:23.657Z,8.01
2019-04-03T04:17:01.593Z,8.03
2019-04-03T04:19:36.714Z,8.00
2019-04-03T04:22:10.034Z,7.98
2019-04-03T04:24:43.283Z,7.93
2019-04-03T04:27:14.877Z,7.99
2019-04-03T04:29:48.948Z,7.93
2019-04-03T04:32:23.461Z,8.01
2019-04-03T04:34:56.956Z,8.07
2019-04-03T04:37:28.687Z,8.03
2019-04-03T04:40:01.302Z,8.02
2019-04-03T04:42:35.395Z,8.06
2019-04-03T04:45:11.859Z,7.97
2019-04-03T04:47:46.545Z,8.01
2019-04-03T04:50:26.980Z,7.91
2019-04-03T04:53:00.975Z,7.97
2019-04-03T04:55:35.679Z,7.99
2019-04-03T04:58:09.893Z,8.01
2019-04-03T05:00:47.032Z,7.98
2019-04-03T05:03:21.685Z,7.94
2019-04-03T05:05:57.269Z,8.00
2019-04-03T05:08:30.837Z,7.90
2019-04-03T05:11:07.556Z,7.96
2019-04-03T05:13:41.716Z,7.97
2019-04-03T05:16:13.455Z,8.04
2019-04-03T05:18:46.162Z,7.97
2019-04-03T05:21:21.411Z,8.13
2019-04-03T05:23:56.103Z,8.08
2019-04-03T05:26:31.931Z,8.17
2019-04-03T05:29:05.035Z,8.12
2019-04-03T05:31:39.062Z,8.15
2019-04-03T05:34:13.300Z,8.22
2019-04-03T05:36:48.552Z,8.35
2019-04-03T05:39:24.157Z,8.34
2019-04-03T05:41:59.585Z,8.40
2019-04-03T05:44:33.816Z,8.46
2019-04-03T05:47:08.465Z,8.52
2019-04-03T05:49:42.106Z,8.49
2019-04-03T05:52:15.555Z,8.60
2019-04-03T05:54:46.701Z,8.59
2019-04-03T05:57:19.388Z,8.68
2019-04-03T05:59:59.463Z,8.75
2019-04-03T06:02:28.733Z,8.78
2019-04-03T06:05:02.328Z,8.83
2019-04-03T06:07:37.781Z,8.93
2019-04-03T06:10:11.589Z,8.94
2019-04-03T06:12:46.055Z,9.04
2019-04-03T06:15:21.707Z,9.05
2019-04-03T06:17:55.825Z,9.13
2019-04-03T06:20:30.683Z,9.16
2019-04-03T06:23:10.218Z,9.24
2019-04-03T06:25:44.813Z,9.41
2019-04-03T06:28:17.557Z,9.52
2019-04-03T06:30:51.292Z,9.56
2019-04-03T06:33:24.917Z,9.55
2019-04-03T06:35:58.590Z,9.63
2019-04-03T06:38:31.598Z,9.66
2019-04-03T06:41:08.362Z,9.94
2019-04-03T06:43:41.684Z,10.06
2019-04-03T06:46:15.848Z,10.05
2019-04-03T06:48:48.620Z,10.14
2019-04-03T06:51:22.397Z,10.39
2019-04-03T06:53:58.687Z,10.52
2019-04-03T06:56:31.036Z,10.56
2019-04-03T06:59:02.489Z,10.52
2019-04-03T07:01:38.740Z,10.81
2019-04-03T07:04:12.467Z,10.94
2019-04-03T07:06:49.844Z,11.13
2019-04-03T07:09:33.800Z,11.32
2019-04-03T07:11:59.095Z,11.57
2019-04-03T07:14:32.815Z,11.62
2019-04-03T07:17:06.072Z,11.71
2019-04-03T07:19:40.290Z,11.83
2019-04-03T07:22:14.562Z,11.96
2019-04-03T07:24:48.585Z,11.96
2019-04-03T07:27:22.392Z,12.16
2019-04-03T07:29:56.375Z,12.30
2019-04-03T07:32:29.653Z,12.43
2019-04-03T07:35:05.192Z,12.62
2019-04-03T07:37:38.920Z,12.87
2019-04-03T07:40:12.554Z,12.96
2019-04-03T07:42:45.920Z,13.26
2019-04-03T07:45:21.388Z,13.37
2019-04-03T07:47:55.684Z,13.79
2019-04-03T07:50:27.855Z,14.02
2019-04-03T07:53:00.801Z,13.55
2019-04-03T07:55:37.083Z,13.96
2019-04-03T07:58:11.852Z,14.28
2019-04-03T08:00:45.744Z,14.17
2019-04-03T08:03:20.705Z,14.12
2019-04-03T08:05:56.714Z,14.29
2019-04-03T08:08:34.336Z,14.17
2019-04-03T08:11:10.374Z,14.29
2019-04-03T08:13:44.344Z,14.16
2019-04-03T08:16:18.051Z,14.26
2019-04-03T08:18:52.511Z,14.55
2019-04-03T08:21:25.207Z,14.37
2019-04-03T08:23:58.668Z,14.77
2019-04-03T08:26:32.854Z,14.80
2019-04-03T08:29:05.824Z,15.01
2019-04-03T08:31:44.310Z,14.84
2019-04-03T08:34:18.872Z,14.88
2019-04-03T08:36:53.203Z,15.27
2019-04-03T08:39:26.392Z,14.70
2019-04-03T08:41:59.269Z,15.47
2019-04-03T08:44:33.865Z,15.60
2019-04-03T08:47:10.229Z,15.93
2019-04-03T08:49:44.308Z,15.52
2019-04-03T08:52:19.318Z,15.92
2019-04-03T08:54:52.639Z,16.12
2019-04-03T08:57:30.657Z,16.15
2019-04-03T09:00:06.093Z,16.38
2019-04-03T09:02:42.483Z,16.26
2019-04-03T09:05:18.963Z,16.28
2019-04-03T09:07:50.817Z,16.24
2019-04-03T09:10:21.847Z,16.58
2019-04-03T09:12:56.744Z,16.36
2019-04-03T09:15:30.961Z,16.66
2019-04-03T09:18:06.442Z,17.44
2019-04-03T09:20:39.010Z,17.44
2019-04-03T09:23:14.825Z,17.56
2019-04-03T09:25:48.180Z,17.67
2019-04-03T09:28:21.139Z,17.57
2019-04-03T09:30:54.117Z,17.24
2019-04-03T09:33:29.762Z,17.58
2019-04-03T09:36:04.533Z,17.72
2019-04-03T09:38:40.453Z,17.87
2019-04-03T09:41:15.331Z,18.37
2019-04-03T09:43:49.391Z,18.47
2019-04-03T09:46:23.111Z,18.65
2019-04-03T09:48:56.926Z,18.49
2019-04-03T09:51:33.003Z,18.53
2019-04-03T09:54:07.086Z,18.71
2019-04-03T09:56:57.197Z,19.10
2019-04-03T09:59:16.338Z,19.12
2019-04-03T10:01:49.554Z,19.48
2019-04-03T10:04:24.139Z,19.70
2019-04-03T10:07:02.022Z,19.86
2019-04-03T10:09:38.512Z,20.00
2019-04-03T10:12:11.356Z,20.16
2019-04-03T10:14:44.468Z,20.65
2019-04-03T10:17:17.845Z,20.09
2019-04-03T10:19:51.216Z,20.49
2019-04-03T10:22:26.334Z,20.54
2019-04-03T10:25:00.606Z,20.18
2019-04-03T10:27:34.674Z,20.63
2019-04-03T10:30:12.145Z,20.51
2019-04-03T10:32:47.933Z,20.03
2019-04-03T10:35:21.761Z,19.90
2019-04-03T10:37:57.787Z,19.97
2019-04-03T10:40:33.868Z,20.47
2019-04-03T10:43:06.784Z,20.74
2019-04-03T10:45:39.665Z,20.33
2019-04-03T10:48:14.446Z,21.13
2019-04-03T10:50:47.667Z,21.18
2019-04-03T10:53:24.608Z,20.60
2019-04-03T10:56:00.167Z,20.91
2019-04-03T10:58:34.841Z,20.96
2019-04-03T11:01:10.110Z,21.03
2019-04-03T11:03:42.923Z,21.45
2019-04-03T11:06:17.293Z,20.88
2019-04-03T11:08:53.268Z,20.29
2019-04-03T11:11:29.672Z,21.87
2019-04-03T11:14:06.626Z,21.70
2019-04-03T11:16:39.548Z,21.78
2019-04-03T11:19:14.894Z,22.35
2019-04-03T11:21:49.267Z,21.95
2019-04-03T11:24:23.405Z,22.86
2019-04-03T11:26:57.014Z,22.08
2019-04-03T11:29:30.635Z,23.14
2019-04-03T11:32:04.911Z,22.66
2019-04-03T11:34:38.025Z,22.24
2019-04-03T11:37:11.771Z,22.71
2019-04-03T11:39:46.246Z,23.96
2019-04-03T11:42:24.893Z,23.12
2019-04-03T11:44:55.152Z,23.24
2019-04-03T11:47:28.882Z,22.98
2019-04-03T11:50:01.418Z,23.52
2019-04-03T11:52:34.674Z,23.20
2019-04-03T11:55:11.195Z,23.09
2019-04-03T11:57:48.616Z,23.62
2019-04-03T12:00:26.796Z,23.12
2019-04-03T12:03:01.507Z,23.38
2019-04-03T12:05:35.220Z,22.70
2019-04-03T12:08:08.535Z,23.59
2019-04-03T12:10:46.046Z,24.24
2019-04-03T12:13:21.047Z,23.82
2019-04-03T12:15:57.510Z,24.05
2019-04-03T12:18:34.139Z,24.54
2019-04-03T12:21:07.435Z,24.24
2019-04-03T12:23:41.469Z,24.24
2019-04-03T12:26:16.910Z,24.38
2019-04-03T12:28:50.903Z,23.94
2019-04-03T12:31:24.782Z,23.83
2019-04-03T12:34:04.553Z,22.47
2019-04-03T12:36:33.661Z,23.06
2019-04-03T12:39:16.045Z,23.69
2019-04-03T12:41:49.358Z,23.64
2019-04-03T12:44:23.616Z,23.42
2019-04-03T12:46:57.348Z,24.46
2019-04-03T12:49:30.185Z,24.61
2019-04-03T12:52:04.541Z,24.69
2019-04-03T12:54:38.738Z,24.08
2019-04-03T12:57:12.364Z,23.72
2019-04-03T12:59:47.629Z,23.46
2019-04-03T13:02:21.594Z,23.81
2019-04-03T13:04:54.991Z,23.68
2019-04-03T13:07:30.595Z,24.45
2019-04-03T13:10:04.632Z,23.78
2019-04-03T13:12:41.617Z,23.97
2019-04-03T13:15:15.879Z,23.87
2019-04-03T13:17:49.098Z,25.05
2019-04-03T13:20:23.417Z,24.41
2019-04-03T13:23:03.008Z,24.94
2019-04-03T13:25:36.867Z,24.41
2019-04-03T13:28:12.155Z,24.80
2019-04-03T13:30:47.458Z,24.30
2019-04-03T13:33:21.140Z,24.66
2019-04-03T13:35:54.388Z,24.48
2019-04-03T13:38:28.929Z,23.64
2019-04-03T13:41:05.194Z,25.16
2019-04-03T13:43:37.917Z,24.06
2019-04-03T13:46:11.239Z,25.44
2019-04-03T13:48:45.239Z,25.26
2019-04-03T13:51:20.011Z,24.98
2019-04-03T13:53:53.888Z,25.52
2019-04-03T13:56:27.667Z,24.92
2019-04-03T13:59:02.669Z,26.37
2019-04-03T14:01:40.255Z,25.45
2019-04-03T14:04:15.901Z,25.92
2019-04-03T14:06:49.441Z,25.34
2019-04-03T14:09:23.229Z,25.98
2019-04-03T14:11:55.947Z,26.27
2019-04-03T14:14:30.904Z,26.35
2019-04-03T14:17:06.965Z,26.49
2019-04-03T14:19:46.106Z,25.49
2019-04-03T14:22:17.007Z,25.50
2019-04-03T14:24:52.588Z,25.53
2019-04-03T14:27:30.701Z,26.53
2019-04-03T14:30:10.262Z,26.20
2019-04-03T14:32:38.023Z,26.19
2019-04-03T14:35:41.220Z,25.56
2019-04-03T14:37:47.681Z,26.53
2019-04-03T14:40:23.005Z,26.50
2019-04-03T14:43:00.031Z,26.29
2019-04-03T14:45:33.255Z,26.02
2019-04-03T14:48:07.254Z,26.82
2019-04-03T14:50:41.132Z,26.86
2019-04-03T14:53:14.125Z,26.50
2019-04-03T14:55:49.869Z,26.29
2019-04-03T14:58:25.806Z,25.94
2019-04-03T15:00:56.858Z,26.82
2019-04-03T15:03:30.274Z,26.88
2019-04-03T15:06:06.096Z,25.42
2019-04-03T15:08:39.144Z,25.16
2019-04-03T15:11:12.473Z,24.90
2019-04-03T15:13:45.604Z,24.52
2019-04-03T15:16:19.789Z,25.21
2019-04-03T15:18:53.531Z,25.08
2019-04-03T15:21:28.342Z,25.24
2019-04-03T15:24:02.125Z,24.41
2019-04-03T15:26:35.127Z,24.68
2019-04-03T15:29:08.461Z,24.15
2019-04-03T15:31:43.190Z,24.40
2019-04-03T15:34:18.473Z,25.03
2019-04-03T15:36:52.886Z,24.91
2019-04-03T15:39:26.215Z,24.44
2019-04-03T15:42:00.967Z,24.09
2019-04-03T15:44:38.614Z,23.41
2019-04-03T15:47:12.348Z,24.34
2019-04-03T15:49:46.705Z,23.83
2019-04-03T15:52:21.647Z,23.12
2019-04-03T15:54:58.452Z,22.72
2019-04-03T15:57:32.098Z,22.82
2019-04-03T16:00:05.790Z,23.81
2019-04-03T16:02:39.239Z,22.92
2019-04-03T16:05:13.395Z,22.68
2019-04-03T16:07:48.287Z,23.34
2019-04-03T16:10:23.996Z,22.75
2019-04-03T16:12:57.763Z,23.10
2019-04-03T16:15:31.306Z,22.65
2019-04-03T16:18:06.302Z,22.88
2019-04-03T16:20:39.701Z,21.97
2019-04-03T16:23:12.845Z,20.99
2019-04-03T16:25:49.816Z,21.89
2019-04-03T16:28:23.531Z,21.22
2019-04-03T16:30:56.012Z,21.83
2019-04-03T16:33:30.453Z,21.70
2019-04-03T16:36:03.251Z,21.78
2019-04-03T16:38:37.105Z,20.74
2019-04-03T16:41:13.856Z,20.95
2019-04-03T16:43:47.406Z,21.12
2019-04-03T16:46:22.804Z,20.46
2019-04-03T16:48:57.830Z,20.97
2019-04-03T16:51:33.359Z,20.24
2019-04-03T16:54:10.400Z,20.26
2019-04-03T16:56:46.982Z,20.21
2019-04-03T16:59:22.069Z,20.30
2019-04-03T17:01:55.629Z,20.59
2019-04-03T17:04:33.042Z,20.85
2019-04-03T17:07:38.442Z,20.62
2019-04-03T17:10:12.987Z,19.57
2019-04-03T17:12:49.573Z,19.75
2019-04-03T17:15:22.756Z,19.47
2019-04-03T17:17:58.646Z,19.66
2019-04-03T17:20:33.320Z,19.55
2019-04-03T17:23:07.807Z,19.63
2019-04-03T17:25:47.579Z,19.50
2019-04-03T17:28:19.959Z,18.99
2019-04-03T17:30:53.523Z,18.80
2019-04-03T17:33:29.081Z,18.67
2019-04-03T17:36:04.086Z,18.82
2019-04-03T17:38:38.974Z,18.48
2019-04-03T17:41:13.600Z,18.32
2019-04-03T17:43:48.666Z,18.48
2019-04-03T17:46:22.533Z,18.48
2019-04-03T17:48:57.266Z,18.62
2019-04-03T17:51:33.703Z,18.51
2019-04-03T17:54:09.129Z,18.33
2019-04-03T17:56:43.582Z,18.28
2019-04-03T17:59:18.179Z,18.37
2019-04-03T18:01:54.213Z,18.23
2019-04-03T18:04:30.765Z,17.82
2019-04-03T18:07:03.861Z,17.54
2019-04-03T18:09:37.461Z,17.71
2019-04-03T18:12:12.823Z,17.63
2019-04-03T18:14:47.183Z,17.70
2019-04-03T18:17:21.136Z,17.69
2019-04-03T18:19:56.150Z,17.63
2019-04-03T18:22:29.908Z,17.74
2019-04-03T18:25:03.874Z,17.50
2019-04-03T18:27:38.122Z,17.56
2019-04-03T18:30:12.908Z,15.88
2019-04-03T18:32:47.589Z,15.05
2019-04-03T18:35:20.467Z,15.13
2019-04-03T18:37:54.023Z,14.59
2019-04-03T18:40:26.993Z,14.32
2019-04-03T18:43:01.880Z,13.91
2019-04-03T18:45:35.970Z,13.31
2019-04-03T18:48:09.843Z,12.54
2019-04-03T18:50:42.558Z,12.48
2019-04-03T18:53:16.711Z,12.57
2019-04-03T18:55:53.003Z,12.26
2019-04-03T18:58:30.162Z,11.91
2019-04-03T19:01:06.963Z,11.33
2019-04-03T19:03:40.641Z,11.03
2019-04-03T19:06:14.525Z,10.98
2019-04-03T19:08:50.016Z,10.47
2019-04-03T19:11:22.684Z,10.17
2019-04-03T19:13:58.787Z,10.10
2019-04-03T19:16:43.630Z,9.80
2019-04-03T19:19:08.497Z,9.70
2019-04-03T19:21:42.269Z,9.75
2019-04-03T19:24:15.848Z,9.68
2019-04-03T19:26:51.160Z,9.38
2019-04-03T19:29:29.499Z,9.23
2019-04-03T19:32:06.339Z,9.19
2019-04-03T19:34:39.378Z,9.37
2019-04-03T19:37:13.649Z,8.93
2019-04-03T19:39:50.570Z,8.95
2019-04-03T19:42:24.179Z,8.99
2019-04-03T19:44:57.974Z,8.90
2019-04-03T19:47:33.169Z,8.61
2019-04-03T19:50:09.195Z,8.80
2019-04-03T19:52:42.889Z,8.73
2019-04-03T19:55:19.324Z,8.72
2019-04-03T19:57:57.473Z,8.49
2019-04-03T20:00:33.074Z,8.55
2019-04-03T20:03:08.571Z,8.38
2019-04-03T20:05:44.061Z,8.53
2019-04-03T20:08:18.460Z,8.62
2019-04-03T20:10:52.387Z,8.51
2019-04-03T20:13:30.217Z,8.40
2019-04-03T20:16:04.726Z,8.31
2019-04-03T20:18:40.298Z,8.24
2019-04-03T20:21:15.768Z,8.28
2019-04-03T20:24:03.112Z,8.25
2019-04-03T20:26:46.638Z,8.31
2019-04-03T20:29:21.777Z,8.38
2019-04-03T20:31:55.423Z,8.24
2019-04-03T20:34:33.132Z,8.24
2019-04-03T20:37:06.869Z,7.90
2019-04-03T20:39:41.035Z,8.07
2019-04-03T20:42:14.718Z,8.04
2019-04-03T20:44:52.285Z,7.92
2019-04-03T20:47:27.463Z,8.06
2019-04-03T20:50:01.476Z,7.92
2019-04-03T20:52:38.047Z,7.98
2019-04-03T20:55:13.443Z,7.70
2019-04-03T20:57:55.504Z,7.80
2019-04-03T21:00:23.937Z,7.71
2019-04-03T21:02:57.290Z,7.54
2019-04-03T21:05:30.522Z,7.39
2019-04-03T21:08:04.738Z,7.37
2019-04-03T21:10:40.098Z,7.33
2019-04-03T21:13:15.394Z,7.46
2019-04-03T21:15:52.394Z,7.31
2019-04-03T21:18:26.796Z,7.19
2019-04-03T21:21:03.909Z,7.20
2019-04-03T21:23:37.037Z,7.23
2019-04-03T21:26:11.742Z,6.96
2019-04-03T21:28:45.431Z,7.01
2019-04-03T21:31:22.098Z,7.01
2019-04-03T21:33:55.436Z,7.08
2019-04-03T21:36:29.644Z,6.83
2019-04-03T21:39:08.197Z,6.67
2019-04-03T21:41:44.123Z,6.82
2019-04-03T21:44:19.935Z,6.78
2019-04-03T21:46:55.536Z,6.80
2019-04-03T21:49:30.570Z,6.53
2019-04-03T21:52:04.182Z,6.66
2019-04-03T21:54:38.992Z,6.55
2019-04-03T21:57:12.395Z,6.68
2019-04-03T21:59:47.367Z,6.55
2019-04-03T22:02:21.232Z,6.68
2019-04-03T22:04:54.739Z,6.68
2019-04-03T22:07:28.211Z,6.59
2019-04-03T22:10:02.645Z,6.67
2019-04-03T22:12:36.696Z,6.47
2019-04-03T22:15:13.553Z,6.63
2019-04-03T22:17:47.416Z,6.56
2019-04-03T22:20:21.178Z,6.57
2019-04-03T22:22:54.854Z,6.53
2019-04-03T22:25:28.138Z,6.70
2019-04-03T22:28:00.501Z,6.62
2019-04-03T22:30:33.553Z,6.70
2019-04-03T22:33:06.871Z,6.53
2019-04-03T22:35:42.479Z,6.74
2019-04-03T22:38:15.745Z,6.72
2019-04-03T22:40:48.781Z,6.78
2019-04-03T22:43:25.296Z,6.78
2019-04-03T22:45:58.704Z,6.75
2019-04-03T22:48:33.454Z,6.85
2019-04-03T22:51:09.978Z,6.86
2019-04-03T22:53:42.704Z,6.75
2019-04-03T22:56:16.942Z,6.75
2019-04-03T22:58:52.965Z,6.78
2019-04-03T23:01:29.568Z,6.71
2019-04-03T23:04:04.965Z,6.75
2019-04-03T23:06:39.363Z,6.74
2019-04-03T23:09:14.391Z,6.76
2019-04-03T23:11:50.528Z,6.68
2019-04-03T23:14:26.009Z,6.56
2019-04-03T23:17:00.330Z,6.73
2019-04-03T23:19:34.283Z,6.65
2019-04-03T23:22:07.777Z,6.63
2019-04-03T23:24:42.542Z,6.61
2019-04-03T23:27:15.615Z,6.56
2019-04-03T23:29:48.852Z,6.65
2019-04-03T23:32:21.733Z,6.81
2019-04-03T23:34:54.942Z,6.63
2019-04-03T23:37:30.588Z,6.67
2019-04-03T23:40:04.114Z,6.47
2019-04-03T23:42:39.568Z,6.64
2019-04-03T23:45:13.515Z,6.50
2019-04-03T23:47:48.238Z,6.57
2019-04-03T23:50:21.909Z,6.64
2019-04-03T23:52:56.293Z,6.47
2019-04-03T23:55:29.960Z,6.56
2019-04-03T23:58:02.721Z,6.63
